sensor_id;sensor_type;location;lat;lon;timestamp;P1;durP1;ratioP1;P2;durP2;ratioP2
31676;SDS011;18385;51.572;6.578;2023-06-19T00:01:47;8.95;;;3.35;;
31676;SDS011;18385;51.572;6.578;2023-06-19T00:04:12;5.32;;;4.00;;
31676;SDS011;18385;51.572;6.578;2023-06-19T00:06:38;5.65;;;4.03;;
31676;SDS011;18385;51.572;6.578;2023-06-19T00:09:04;7.00;;;3.67;;
31676;SDS011;18385;51.572;6.578;2023-06-19T00:11:30;9.10;;;3.80;;
31676;SDS011;18385;51.572;6.578;2023-06-19T00:13:55;9.00;;;3.75;;
31676;SDS011;18385;51.572;6.578;2023-06-19T00:16:21;12.60;;;3.38;;
31676;SDS011;18385;51.572;6.578;2023-06-19T00:18:50;4.68;;;3.45;;
31676;SDS011;18385;51.572;6.578;2023-06-19T00:21:16;6.35;;;3.30;;
31676;SDS011;18385;51.572;6.578;2023-06-19T00:23:42;7.03;;;3.45;;
31676;SDS011;18385;51.572;6.578;2023-06-19T00:26:08;4.55;;;2.63;;
31676;SDS011;18385;51.572;6.578;2023-06-19T00:28:35;4.47;;;3.30;;
31676;SDS011;18385;51.572;6.578;2023-06-19T00:31:06;4.45;;;3.05;;
31676;SDS011;18385;51.572;6.578;2023-06-19T00:33:32;6.13;;;2.90;;
31676;SDS011;18385;51.572;6.578;2023-06-19T00:35:58;4.60;;;3.60;;
31676;SDS011;18385;51.572;6.578;2023-06-19T00:38:23;4.93;;;3.33;;
31676;SDS011;18385;51.572;6.578;2023-06-19T00:40:49;4.65;;;2.97;;
31676;SDS011;18385;51.572;6.578;2023-06-19T00:43:14;5.47;;;3.33;;
31676;SDS011;18385;51.572;6.578;2023-06-19T00:45:40;5.07;;;3.42;;
31676;SDS011;18385;51.572;6.578;2023-06-19T00:48:06;5.80;;;3.30;;
31676;SDS011;18385;51.572;6.578;2023-06-19T00:50:32;5.88;;;3.28;;
31676;SDS011;18385;51.572;6.578;2023-06-19T00:52:58;6.75;;;3.03;;
31676;SDS011;18385;51.572;6.578;2023-06-19T00:55:28;4.15;;;3.15;;
31676;SDS011;18385;51.572;6.578;2023-06-19T00:57:57;5.00;;;3.38;;
31676;SDS011;18385;51.572;6.578;2023-06-19T01:00:25;4.70;;;3.13;;
31676;SDS011;18385;51.572;6.578;2023-06-19T01:02:50;5.15;;;2.80;;
31676;SDS011;18385;51.572;6.578;2023-06-19T01:05:16;6.13;;;2.88;;
31676;SDS011;18385;51.572;6.578;2023-06-19T01:07:47;5.03;;;2.83;;
31676;SDS011;18385;51.572;6.578;2023-06-19T01:10:16;4.97;;;2.78;;
31676;SDS011;18385;51.572;6.578;2023-06-19T01:12:55;6.20;;;3.28;;
31676;SDS011;18385;51.572;6.578;2023-06-19T01:15:25;4.57;;;3.25;;
31676;SDS011;18385;51.572;6.578;2023-06-19T01:17:51;5.53;;;3.00;;
31676;SDS011;18385;51.572;6.578;2023-06-19T01:20:21;4.40;;;2.70;;
31676;SDS011;18385;51.572;6.578;2023-06-19T01:22:47;6.15;;;3.10;;
31676;SDS011;18385;51.572;6.578;2023-06-19T01:25:12;7.20;;;3.72;;
31676;SDS011;18385;51.572;6.578;2023-06-19T01:27:39;5.30;;;2.92;;
31676;SDS011;18385;51.572;6.578;2023-06-19T01:30:06;5.22;;;3.10;;
31676;SDS011;18385;51.572;6.578;2023-06-19T01:35:25;5.72;;;3.13;;
31676;SDS011;18385;51.572;6.578;2023-06-19T01:37:57;5.55;;;3.50;;
31676;SDS011;18385;51.572;6.578;2023-06-19T01:40:25;4.82;;;3.05;;
31676;SDS011;18385;51.572;6.578;2023-06-19T01:42:56;6.60;;;3.00;;
31676;SDS011;18385;51.572;6.578;2023-06-19T01:45:26;6.00;;;3.38;;
31676;SDS011;18385;51.572;6.578;2023-06-19T01:47:54;4.82;;;3.10;;
31676;SDS011;18385;51.572;6.578;2023-06-19T01:50:23;3.78;;;2.97;;
31676;SDS011;18385;51.572;6.578;2023-06-19T01:52:50;3.85;;;2.90;;
31676;SDS011;18385;51.572;6.578;2023-06-19T01:55:17;5.45;;;3.30;;
31676;SDS011;18385;51.572;6.578;2023-06-19T01:57:43;9.98;;;3.60;;
31676;SDS011;18385;51.572;6.578;2023-06-19T02:00:11;4.90;;;3.05;;
31676;SDS011;18385;51.572;6.578;2023-06-19T02:02:41;4.75;;;3.17;;
31676;SDS011;18385;51.572;6.578;2023-06-19T02:05:06;5.35;;;2.97;;
31676;SDS011;18385;51.572;6.578;2023-06-19T02:07:32;6.82;;;3.38;;
31676;SDS011;18385;51.572;6.578;2023-06-19T02:09:58;6.05;;;3.58;;
31676;SDS011;18385;51.572;6.578;2023-06-19T02:12:24;4.25;;;3.10;;
31676;SDS011;18385;51.572;6.578;2023-06-19T02:14:49;7.80;;;4.03;;
31676;SDS011;18385;51.572;6.578;2023-06-19T02:17:15;4.45;;;3.50;;
31676;SDS011;18385;51.572;6.578;2023-06-19T02:19:41;5.97;;;3.05;;
31676;SDS011;18385;51.572;6.578;2023-06-19T02:22:07;4.78;;;3.22;;
31676;SDS011;18385;51.572;6.578;2023-06-19T02:24:33;4.72;;;3.17;;
31676;SDS011;18385;51.572;6.578;2023-06-19T02:26:59;6.63;;;3.50;;
31676;SDS011;18385;51.572;6.578;2023-06-19T02:29:25;5.95;;;3.97;;
31676;SDS011;18385;51.572;6.578;2023-06-19T02:31:51;4.70;;;3.42;;
31676;SDS011;18385;51.572;6.578;2023-06-19T02:34:17;4.65;;;3.30;;
31676;SDS011;18385;51.572;6.578;2023-06-19T02:36:42;6.22;;;3.75;;
31676;SDS011;18385;51.572;6.578;2023-06-19T02:39:08;5.65;;;3.15;;
31676;SDS011;18385;51.572;6.578;2023-06-19T02:41:34;7.47;;;3.65;;
31676;SDS011;18385;51.572;6.578;2023-06-19T02:44:02;5.65;;;3.15;;
31676;SDS011;18385;51.572;6.578;2023-06-19T02:46:28;5.45;;;2.70;;
31676;SDS011;18385;51.572;6.578;2023-06-19T02:48:53;4.10;;;2.95;;
31676;SDS011;18385;51.572;6.578;2023-06-19T02:51:21;5.75;;;3.25;;
31676;SDS011;18385;51.572;6.578;2023-06-19T02:53:46;6.45;;;3.13;;
31676;SDS011;18385;51.572;6.578;2023-06-19T02:56:12;5.28;;;2.83;;
31676;SDS011;18385;51.572;6.578;2023-06-19T02:58:38;4.45;;;2.80;;
31676;SDS011;18385;51.572;6.578;2023-06-19T03:01:03;4.75;;;3.25;;
31676;SDS011;18385;51.572;6.578;2023-06-19T03:03:32;6.15;;;2.67;;
31676;SDS011;18385;51.572;6.578;2023-06-19T03:06:06;5.72;;;2.78;;
31676;SDS011;18385;51.572;6.578;2023-06-19T03:08:36;6.45;;;2.83;;
31676;SDS011;18385;51.572;6.578;2023-06-19T03:11:02;4.22;;;2.80;;
31676;SDS011;18385;51.572;6.578;2023-06-19T03:16:19;5.43;;;3.15;;
31676;SDS011;18385;51.572;6.578;2023-06-19T03:18:46;5.68;;;3.42;;
31676;SDS011;18385;51.572;6.578;2023-06-19T03:21:14;4.40;;;2.72;;
31676;SDS011;18385;51.572;6.578;2023-06-19T03:23:42;4.37;;;2.57;;
31676;SDS011;18385;51.572;6.578;2023-06-19T03:26:09;4.65;;;2.50;;
31676;SDS011;18385;51.572;6.578;2023-06-19T03:28:37;3.50;;;2.17;;
31676;SDS011;18385;51.572;6.578;2023-06-19T03:31:06;4.30;;;2.45;;
31676;SDS011;18385;51.572;6.578;2023-06-19T03:33:31;4.78;;;2.13;;
31676;SDS011;18385;51.572;6.578;2023-06-19T03:35:57;3.90;;;1.90;;
31676;SDS011;18385;51.572;6.578;2023-06-19T03:38:38;4.13;;;2.10;;
31676;SDS011;18385;51.572;6.578;2023-06-19T03:41:05;3.25;;;1.92;;
31676;SDS011;18385;51.572;6.578;2023-06-19T03:43:30;3.03;;;1.80;;
31676;SDS011;18385;51.572;6.578;2023-06-19T03:45:56;2.92;;;1.73;;
31676;SDS011;18385;51.572;6.578;2023-06-19T03:48:22;4.03;;;2.50;;
31676;SDS011;18385;51.572;6.578;2023-06-19T03:50:47;2.53;;;1.40;;
31676;SDS011;18385;51.572;6.578;2023-06-19T03:53:13;3.53;;;1.63;;
31676;SDS011;18385;51.572;6.578;2023-06-19T03:55:39;3.75;;;1.67;;
31676;SDS011;18385;51.572;6.578;2023-06-19T03:58:05;4.68;;;2.20;;
31676;SDS011;18385;51.572;6.578;2023-06-19T04:00:31;3.47;;;1.85;;
31676;SDS011;18385;51.572;6.578;2023-06-19T04:02:57;2.97;;;1.67;;
31676;SDS011;18385;51.572;6.578;2023-06-19T04:05:23;4.13;;;1.80;;
31676;SDS011;18385;51.572;6.578;2023-06-19T04:07:49;3.47;;;1.80;;
31676;SDS011;18385;51.572;6.578;2023-06-19T04:10:15;3.85;;;1.42;;
31676;SDS011;18385;51.572;6.578;2023-06-19T04:12:41;4.63;;;2.10;;
31676;SDS011;18385;51.572;6.578;2023-06-19T04:15:07;3.13;;;1.80;;
31676;SDS011;18385;51.572;6.578;2023-06-19T04:17:33;3.53;;;1.90;;
31676;SDS011;18385;51.572;6.578;2023-06-19T04:19:59;4.07;;;1.98;;
31676;SDS011;18385;51.572;6.578;2023-06-19T04:22:24;3.03;;;1.70;;
31676;SDS011;18385;51.572;6.578;2023-06-19T04:24:50;2.50;;;1.65;;
31676;SDS011;18385;51.572;6.578;2023-06-19T04:27:16;4.28;;;2.22;;
31676;SDS011;18385;51.572;6.578;2023-06-19T04:29:41;4.85;;;2.08;;
31676;SDS011;18385;51.572;6.578;2023-06-19T04:32:07;3.60;;;1.67;;
31676;SDS011;18385;51.572;6.578;2023-06-19T04:34:37;3.08;;;1.90;;
31676;SDS011;18385;51.572;6.578;2023-06-19T04:37:07;3.33;;;1.77;;
31676;SDS011;18385;51.572;6.578;2023-06-19T04:39:33;3.47;;;1.70;;
31676;SDS011;18385;51.572;6.578;2023-06-19T04:41:59;3.80;;;1.70;;
31676;SDS011;18385;51.572;6.578;2023-06-19T04:44:25;3.63;;;2.00;;
31676;SDS011;18385;51.572;6.578;2023-06-19T04:46:51;4.03;;;1.73;;
31676;SDS011;18385;51.572;6.578;2023-06-19T04:49:25;2.88;;;1.77;;
31676;SDS011;18385;51.572;6.578;2023-06-19T04:51:57;4.88;;;1.70;;
31676;SDS011;18385;51.572;6.578;2023-06-19T04:54:23;4.20;;;1.77;;
31676;SDS011;18385;51.572;6.578;2023-06-19T04:56:49;3.05;;;1.75;;
31676;SDS011;18385;51.572;6.578;2023-06-19T04:59:15;4.82;;;1.92;;
31676;SDS011;18385;51.572;6.578;2023-06-19T05:01:43;2.78;;;1.45;;
31676;SDS011;18385;51.572;6.578;2023-06-19T05:04:09;3.55;;;1.55;;
31676;SDS011;18385;51.572;6.578;2023-06-19T05:06:36;3.15;;;1.70;;
31676;SDS011;18385;51.572;6.578;2023-06-19T05:09:05;4.00;;;1.80;;
31676;SDS011;18385;51.572;6.578;2023-06-19T05:11:31;4.57;;;1.33;;
31676;SDS011;18385;51.572;6.578;2023-06-19T05:13:57;3.55;;;2.08;;
31676;SDS011;18385;51.572;6.578;2023-06-19T05:16:22;3.53;;;1.88;;
31676;SDS011;18385;51.572;6.578;2023-06-19T05:18:49;3.10;;;1.20;;
31676;SDS011;18385;51.572;6.578;2023-06-19T05:21:16;2.80;;;1.83;;
31676;SDS011;18385;51.572;6.578;2023-06-19T05:23:42;4.75;;;1.85;;
31676;SDS011;18385;51.572;6.578;2023-06-19T05:26:07;4.10;;;1.50;;
31676;SDS011;18385;51.572;6.578;2023-06-19T05:28:33;2.60;;;1.52;;
31676;SDS011;18385;51.572;6.578;2023-06-19T05:30:59;3.22;;;1.40;;
31676;SDS011;18385;51.572;6.578;2023-06-19T05:33:25;4.65;;;1.67;;
31676;SDS011;18385;51.572;6.578;2023-06-19T05:35:50;2.70;;;1.75;;
31676;SDS011;18385;51.572;6.578;2023-06-19T05:38:18;3.58;;;1.60;;
31676;SDS011;18385;51.572;6.578;2023-06-19T05:40:44;5.30;;;1.65;;
31676;SDS011;18385;51.572;6.578;2023-06-19T05:43:10;6.07;;;1.45;;
31676;SDS011;18385;51.572;6.578;2023-06-19T05:45:36;2.03;;;1.40;;
31676;SDS011;18385;51.572;6.578;2023-06-19T05:48:02;2.63;;;1.40;;
31676;SDS011;18385;51.572;6.578;2023-06-19T05:50:28;2.78;;;1.33;;
31676;SDS011;18385;51.572;6.578;2023-06-19T05:52:55;4.55;;;1.52;;
31676;SDS011;18385;51.572;6.578;2023-06-19T05:55:21;3.10;;;1.50;;
31676;SDS011;18385;51.572;6.578;2023-06-19T05:57:47;2.15;;;1.23;;
31676;SDS011;18385;51.572;6.578;2023-06-19T06:00:12;4.05;;;1.40;;
31676;SDS011;18385;51.572;6.578;2023-06-19T06:02:40;4.03;;;1.40;;
31676;SDS011;18385;51.572;6.578;2023-06-19T06:05:06;2.65;;;1.60;;
31676;SDS011;18385;51.572;6.578;2023-06-19T06:07:33;3.17;;;1.20;;
31676;SDS011;18385;51.572;6.578;2023-06-19T06:09:59;3.45;;;1.40;;
31676;SDS011;18385;51.572;6.578;2023-06-19T06:12:25;2.58;;;1.52;;
31676;SDS011;18385;51.572;6.578;2023-06-19T06:14:50;2.97;;;1.40;;
31676;SDS011;18385;51.572;6.578;2023-06-19T06:17:16;2.92;;;1.60;;
31676;SDS011;18385;51.572;6.578;2023-06-19T06:19:42;3.67;;;1.55;;
31676;SDS011;18385;51.572;6.578;2023-06-19T06:22:07;4.47;;;1.65;;
31676;SDS011;18385;51.572;6.578;2023-06-19T06:24:33;3.40;;;1.65;;
31676;SDS011;18385;51.572;6.578;2023-06-19T06:26:59;5.75;;;1.80;;
31676;SDS011;18385;51.572;6.578;2023-06-19T06:29:24;6.32;;;1.85;;
31676;SDS011;18385;51.572;6.578;2023-06-19T06:31:50;4.68;;;2.00;;
31676;SDS011;18385;51.572;6.578;2023-06-19T06:34:18;3.10;;;2.20;;
31676;SDS011;18385;51.572;6.578;2023-06-19T06:36:44;5.15;;;1.95;;
31676;SDS011;18385;51.572;6.578;2023-06-19T06:39:10;3.75;;;1.77;;
31676;SDS011;18385;51.572;6.578;2023-06-19T06:41:36;4.18;;;1.85;;
31676;SDS011;18385;51.572;6.578;2023-06-19T06:44:04;3.33;;;1.90;;
31676;SDS011;18385;51.572;6.578;2023-06-19T06:46:30;3.45;;;1.70;;
31676;SDS011;18385;51.572;6.578;2023-06-19T06:48:56;6.43;;;2.03;;
31676;SDS011;18385;51.572;6.578;2023-06-19T06:51:21;5.57;;;1.80;;
31676;SDS011;18385;51.572;6.578;2023-06-19T06:53:47;4.85;;;1.60;;
31676;SDS011;18385;51.572;6.578;2023-06-19T06:56:13;3.00;;;1.83;;
31676;SDS011;18385;51.572;6.578;2023-06-19T06:58:39;4.30;;;2.00;;
31676;SDS011;18385;51.572;6.578;2023-06-19T07:01:05;5.97;;;2.90;;
31676;SDS011;18385;51.572;6.578;2023-06-19T07:03:30;3.80;;;2.25;;
31676;SDS011;18385;51.572;6.578;2023-06-19T07:05:57;3.88;;;2.13;;
31676;SDS011;18385;51.572;6.578;2023-06-19T07:08:23;3.75;;;2.05;;
31676;SDS011;18385;51.572;6.578;2023-06-19T07:10:48;3.58;;;1.90;;
31676;SDS011;18385;51.572;6.578;2023-06-19T07:13:14;3.00;;;2.13;;
31676;SDS011;18385;51.572;6.578;2023-06-19T07:15:40;6.28;;;1.88;;
31676;SDS011;18385;51.572;6.578;2023-06-19T07:18:05;3.33;;;1.55;;
31676;SDS011;18385;51.572;6.578;2023-06-19T07:20:31;2.63;;;1.88;;
31676;SDS011;18385;51.572;6.578;2023-06-19T07:22:57;3.03;;;1.92;;
31676;SDS011;18385;51.572;6.578;2023-06-19T07:25:23;4.13;;;1.60;;
31676;SDS011;18385;51.572;6.578;2023-06-19T07:27:50;4.00;;;1.83;;
31676;SDS011;18385;51.572;6.578;2023-06-19T07:30:16;3.47;;;1.92;;
31676;SDS011;18385;51.572;6.578;2023-06-19T07:32:42;4.30;;;1.90;;
31676;SDS011;18385;51.572;6.578;2023-06-19T07:35:07;2.85;;;1.77;;
31676;SDS011;18385;51.572;6.578;2023-06-19T07:37:33;3.65;;;1.60;;
31676;SDS011;18385;51.572;6.578;2023-06-19T07:39:59;4.85;;;1.80;;
31676;SDS011;18385;51.572;6.578;2023-06-19T07:42:25;7.72;;;2.10;;
31676;SDS011;18385;51.572;6.578;2023-06-19T07:44:53;3.70;;;2.05;;
31676;SDS011;18385;51.572;6.578;2023-06-19T07:47:19;4.10;;;1.90;;
31676;SDS011;18385;51.572;6.578;2023-06-19T07:49:45;7.32;;;3.20;;
31676;SDS011;18385;51.572;6.578;2023-06-19T07:52:11;4.15;;;1.88;;
31676;SDS011;18385;51.572;6.578;2023-06-19T07:54:51;5.25;;;1.90;;
31676;SDS011;18385;51.572;6.578;2023-06-19T07:57:18;5.35;;;1.92;;
31676;SDS011;18385;51.572;6.578;2023-06-19T07:59:45;2.70;;;1.80;;
31676;SDS011;18385;51.572;6.578;2023-06-19T08:02:11;4.65;;;2.03;;
31676;SDS011;18385;51.572;6.578;2023-06-19T08:04:37;4.70;;;1.73;;
31676;SDS011;18385;51.572;6.578;2023-06-19T08:07:02;4.25;;;1.70;;
31676;SDS011;18385;51.572;6.578;2023-06-19T08:09:28;3.72;;;1.73;;
31676;SDS011;18385;51.572;6.578;2023-06-19T08:11:54;2.58;;;1.33;;
31676;SDS011;18385;51.572;6.578;2023-06-19T08:14:19;3.28;;;1.60;;
31676;SDS011;18385;51.572;6.578;2023-06-19T08:16:45;2.95;;;1.63;;
31676;SDS011;18385;51.572;6.578;2023-06-19T08:19:11;3.25;;;1.52;;
31676;SDS011;18385;51.572;6.578;2023-06-19T08:21:36;2.33;;;1.42;;
31676;SDS011;18385;51.572;6.578;2023-06-19T08:24:02;2.05;;;1.23;;
31676;SDS011;18385;51.572;6.578;2023-06-19T08:26:28;1.67;;;1.17;;
31676;SDS011;18385;51.572;6.578;2023-06-19T08:28:53;2.15;;;1.20;;
31676;SDS011;18385;51.572;6.578;2023-06-19T08:31:19;3.33;;;1.35;;
31676;SDS011;18385;51.572;6.578;2023-06-19T08:33:47;3.88;;;1.00;;
31676;SDS011;18385;51.572;6.578;2023-06-19T08:36:15;5.47;;;1.25;;
31676;SDS011;18385;51.572;6.578;2023-06-19T08:38:41;2.88;;;1.10;;
31676;SDS011;18385;51.572;6.578;2023-06-19T08:41:07;1.92;;;1.20;;
31676;SDS011;18385;51.572;6.578;2023-06-19T08:43:32;2.20;;;1.13;;
31676;SDS011;18385;51.572;6.578;2023-06-19T08:48:34;2.10;;;1.40;;
31676;SDS011;18385;51.572;6.578;2023-06-19T08:51:01;4.43;;;1.55;;
31676;SDS011;18385;51.572;6.578;2023-06-19T08:53:29;3.65;;;1.42;;
31676;SDS011;18385;51.572;6.578;2023-06-19T08:55:57;6.53;;;1.83;;
31676;SDS011;18385;51.572;6.578;2023-06-19T08:58:23;4.60;;;1.77;;
31676;SDS011;18385;51.572;6.578;2023-06-19T09:00:49;4.38;;;1.50;;
31676;SDS011;18385;51.572;6.578;2023-06-19T09:03:19;2.40;;;1.40;;
31676;SDS011;18385;51.572;6.578;2023-06-19T09:05:49;4.18;;;1.58;;
31676;SDS011;18385;51.572;6.578;2023-06-19T09:08:15;2.97;;;1.73;;
31676;SDS011;18385;51.572;6.578;2023-06-19T09:10:56;2.97;;;1.63;;
31676;SDS011;18385;51.572;6.578;2023-06-19T09:13:22;4.32;;;1.70;;
31676;SDS011;18385;51.572;6.578;2023-06-19T09:15:56;2.53;;;1.55;;
31676;SDS011;18385;51.572;6.578;2023-06-19T09:18:48;2.88;;;1.63;;
31676;SDS011;18385;51.572;6.578;2023-06-19T09:21:19;3.20;;;1.60;;
31676;SDS011;18385;51.572;6.578;2023-06-19T09:23:47;2.50;;;1.95;;
31676;SDS011;18385;51.572;6.578;2023-06-19T09:26:17;5.00;;;2.50;;
31676;SDS011;18385;51.572;6.578;2023-06-19T09:28:44;3.90;;;2.08;;
31676;SDS011;18385;51.572;6.578;2023-06-19T09:31:11;2.58;;;1.80;;
31676;SDS011;18385;51.572;6.578;2023-06-19T09:33:38;6.72;;;2.25;;
31676;SDS011;18385;51.572;6.578;2023-06-19T09:36:05;4.55;;;2.72;;
31676;SDS011;18385;51.572;6.578;2023-06-19T09:38:32;3.72;;;1.73;;
31676;SDS011;18385;51.572;6.578;2023-06-19T09:41:00;3.97;;;2.00;;
31676;SDS011;18385;51.572;6.578;2023-06-19T09:46:02;5.25;;;2.13;;
31676;SDS011;18385;51.572;6.578;2023-06-19T09:48:29;5.28;;;2.35;;
31676;SDS011;18385;51.572;6.578;2023-06-19T09:51:01;3.47;;;1.90;;
31676;SDS011;18385;51.572;6.578;2023-06-19T09:53:51;3.40;;;2.17;;
31676;SDS011;18385;51.572;6.578;2023-06-19T09:56:17;5.18;;;2.13;;
31676;SDS011;18385;51.572;6.578;2023-06-19T09:58:46;3.33;;;2.10;;
31676;SDS011;18385;51.572;6.578;2023-06-19T10:01:15;3.20;;;2.40;;
31676;SDS011;18385;51.572;6.578;2023-06-19T10:03:45;4.07;;;2.85;;
31676;SDS011;18385;51.572;6.578;2023-06-19T10:06:14;5.43;;;2.40;;
31676;SDS011;18385;51.572;6.578;2023-06-19T10:08:41;5.15;;;3.35;;
31676;SDS011;18385;51.572;6.578;2023-06-19T10:11:09;5.05;;;2.60;;
31676;SDS011;18385;51.572;6.578;2023-06-19T10:13:40;4.63;;;2.45;;
31676;SDS011;18385;51.572;6.578;2023-06-19T10:16:07;4.82;;;2.55;;
31676;SDS011;18385;51.572;6.578;2023-06-19T10:18:44;5.65;;;2.58;;
31676;SDS011;18385;51.572;6.578;2023-06-19T10:21:21;4.13;;;2.40;;
31676;SDS011;18385;51.572;6.578;2023-06-19T10:23:54;6.70;;;2.90;;
31676;SDS011;18385;51.572;6.578;2023-06-19T10:26:28;5.93;;;2.65;;
31676;SDS011;18385;51.572;6.578;2023-06-19T10:28:58;4.68;;;2.80;;
31676;SDS011;18385;51.572;6.578;2023-06-19T10:31:23;7.55;;;3.17;;
31676;SDS011;18385;51.572;6.578;2023-06-19T10:33:49;6.10;;;2.90;;
31676;SDS011;18385;51.572;6.578;2023-06-19T10:38:41;5.25;;;3.00;;
31676;SDS011;18385;51.572;6.578;2023-06-19T10:41:18;8.73;;;2.80;;
31676;SDS011;18385;51.572;6.578;2023-06-19T10:43:53;3.92;;;2.70;;
31676;SDS011;18385;51.572;6.578;2023-06-19T10:46:20;6.35;;;3.55;;
31676;SDS011;18385;51.572;6.578;2023-06-19T10:48:47;5.50;;;3.20;;
31676;SDS011;18385;51.572;6.578;2023-06-19T10:51:17;7.97;;;3.33;;
31676;SDS011;18385;51.572;6.578;2023-06-19T10:53:46;4.47;;;2.88;;
31676;SDS011;18385;51.572;6.578;2023-06-19T10:56:12;7.15;;;2.88;;
31676;SDS011;18385;51.572;6.578;2023-06-19T10:58:37;6.22;;;3.05;;
31676;SDS011;18385;51.572;6.578;2023-06-19T11:01:03;6.63;;;3.08;;
31676;SDS011;18385;51.572;6.578;2023-06-19T11:03:29;8.20;;;3.33;;
31676;SDS011;18385;51.572;6.578;2023-06-19T11:05:57;5.28;;;2.80;;
31676;SDS011;18385;51.572;6.578;2023-06-19T11:08:23;4.03;;;3.13;;
31676;SDS011;18385;51.572;6.578;2023-06-19T11:10:49;6.10;;;2.75;;
31676;SDS011;18385;51.572;6.578;2023-06-19T11:13:16;5.90;;;3.25;;
31676;SDS011;18385;51.572;6.578;2023-06-19T11:15:43;4.35;;;3.10;;
31676;SDS011;18385;51.572;6.578;2023-06-19T11:18:09;4.97;;;3.17;;
31676;SDS011;18385;51.572;6.578;2023-06-19T11:20:49;5.15;;;3.40;;
31676;SDS011;18385;51.572;6.578;2023-06-19T11:23:16;4.65;;;3.17;;
31676;SDS011;18385;51.572;6.578;2023-06-19T11:25:49;5.90;;;3.00;;
31676;SDS011;18385;51.572;6.578;2023-06-19T11:28:15;6.82;;;3.58;;
31676;SDS011;18385;51.572;6.578;2023-06-19T11:30:48;6.47;;;3.40;;
31676;SDS011;18385;51.572;6.578;2023-06-19T11:33:22;5.38;;;3.00;;
31676;SDS011;18385;51.572;6.578;2023-06-19T11:35:48;5.78;;;3.47;;
31676;SDS011;18385;51.572;6.578;2023-06-19T11:38:17;6.95;;;3.00;;
31676;SDS011;18385;51.572;6.578;2023-06-19T11:40:43;5.85;;;3.13;;
31676;SDS011;18385;51.572;6.578;2023-06-19T11:43:11;5.60;;;2.75;;
31676;SDS011;18385;51.572;6.578;2023-06-19T11:45:49;4.97;;;2.88;;
31676;SDS011;18385;51.572;6.578;2023-06-19T11:48:26;4.18;;;2.88;;
31676;SDS011;18385;51.572;6.578;2023-06-19T11:50:52;7.90;;;2.80;;
31676;SDS011;18385;51.572;6.578;2023-06-19T11:53:19;6.80;;;3.20;;
31676;SDS011;18385;51.572;6.578;2023-06-19T11:55:46;4.80;;;3.05;;
31676;SDS011;18385;51.572;6.578;2023-06-19T11:58:11;6.85;;;3.20;;
31676;SDS011;18385;51.572;6.578;2023-06-19T12:00:37;6.57;;;2.88;;
31676;SDS011;18385;51.572;6.578;2023-06-19T12:03:03;6.53;;;3.08;;
31676;SDS011;18385;51.572;6.578;2023-06-19T12:05:29;5.00;;;3.50;;
31676;SDS011;18385;51.572;6.578;2023-06-19T12:07:55;7.10;;;2.88;;
31676;SDS011;18385;51.572;6.578;2023-06-19T12:10:21;4.05;;;2.78;;
31676;SDS011;18385;51.572;6.578;2023-06-19T12:12:47;4.03;;;2.95;;
31676;SDS011;18385;51.572;6.578;2023-06-19T12:15:12;5.63;;;3.05;;
31676;SDS011;18385;51.572;6.578;2023-06-19T12:17:38;4.10;;;3.00;;
31676;SDS011;18385;51.572;6.578;2023-06-19T12:20:06;4.80;;;2.78;;
31676;SDS011;18385;51.572;6.578;2023-06-19T12:22:33;8.43;;;3.17;;
31676;SDS011;18385;51.572;6.578;2023-06-19T12:25:00;8.02;;;3.00;;
31676;SDS011;18385;51.572;6.578;2023-06-19T12:27:26;5.22;;;2.90;;
31676;SDS011;18385;51.572;6.578;2023-06-19T12:29:52;7.32;;;3.60;;
31676;SDS011;18385;51.572;6.578;2023-06-19T12:32:17;3.47;;;2.55;;
31676;SDS011;18385;51.572;6.578;2023-06-19T12:34:43;4.38;;;2.67;;
31676;SDS011;18385;51.572;6.578;2023-06-19T12:37:15;5.70;;;3.67;;
31676;SDS011;18385;51.572;6.578;2023-06-19T12:39:42;4.38;;;2.97;;
31676;SDS011;18385;51.572;6.578;2023-06-19T12:42:09;4.45;;;2.72;;
31676;SDS011;18385;51.572;6.578;2023-06-19T12:44:37;4.20;;;2.65;;
31676;SDS011;18385;51.572;6.578;2023-06-19T12:47:06;4.93;;;2.95;;
31676;SDS011;18385;51.572;6.578;2023-06-19T12:49:32;7.63;;;3.10;;
31676;SDS011;18385;51.572;6.578;2023-06-19T12:51:58;4.93;;;2.55;;
31676;SDS011;18385;51.572;6.578;2023-06-19T12:54:25;6.15;;;3.13;;
31676;SDS011;18385;51.572;6.578;2023-06-19T12:56:51;6.10;;;2.70;;
31676;SDS011;18385;51.572;6.578;2023-06-19T12:59:16;4.85;;;2.90;;
31676;SDS011;18385;51.572;6.578;2023-06-19T13:01:42;4.35;;;2.83;;
31676;SDS011;18385;51.572;6.578;2023-06-19T13:04:08;4.10;;;2.88;;
31676;SDS011;18385;51.572;6.578;2023-06-19T13:06:34;5.03;;;3.30;;
31676;SDS011;18385;51.572;6.578;2023-06-19T13:09:01;3.92;;;2.53;;
31676;SDS011;18385;51.572;6.578;2023-06-19T13:11:27;4.47;;;2.50;;
31676;SDS011;18385;51.572;6.578;2023-06-19T13:13:53;5.43;;;2.90;;
31676;SDS011;18385;51.572;6.578;2023-06-19T13:16:18;4.20;;;2.72;;
31676;SDS011;18385;51.572;6.578;2023-06-19T13:18:44;5.72;;;2.90;;
31676;SDS011;18385;51.572;6.578;2023-06-19T13:21:11;6.03;;;3.20;;
31676;SDS011;18385;51.572;6.578;2023-06-19T13:23:37;5.18;;;2.70;;
31676;SDS011;18385;51.572;6.578;2023-06-19T13:26:03;5.50;;;3.03;;
31676;SDS011;18385;51.572;6.578;2023-06-19T13:28:31;3.55;;;2.65;;
31676;SDS011;18385;51.572;6.578;2023-06-19T13:30:56;3.65;;;2.42;;
31676;SDS011;18385;51.572;6.578;2023-06-19T13:33:22;6.15;;;2.45;;
31676;SDS011;18385;51.572;6.578;2023-06-19T13:35:48;4.55;;;2.67;;
31676;SDS011;18385;51.572;6.578;2023-06-19T13:38:13;6.50;;;2.80;;
31676;SDS011;18385;51.572;6.578;2023-06-19T13:40:40;3.92;;;2.60;;
31676;SDS011;18385;51.572;6.578;2023-06-19T13:43:07;4.18;;;2.90;;
31676;SDS011;18385;51.572;6.578;2023-06-19T13:45:32;4.53;;;2.70;;
31676;SDS011;18385;51.572;6.578;2023-06-19T13:47:59;5.22;;;2.80;;
31676;SDS011;18385;51.572;6.578;2023-06-19T13:50:25;5.72;;;2.88;;
31676;SDS011;18385;51.572;6.578;2023-06-19T13:52:51;3.42;;;2.65;;
31676;SDS011;18385;51.572;6.578;2023-06-19T13:55:18;3.78;;;2.60;;
31676;SDS011;18385;51.572;6.578;2023-06-19T13:57:44;3.58;;;2.70;;
31676;SDS011;18385;51.572;6.578;2023-06-19T14:00:10;3.67;;;2.53;;
31676;SDS011;18385;51.572;6.578;2023-06-19T14:02:40;4.32;;;2.85;;
31676;SDS011;18385;51.572;6.578;2023-06-19T14:05:06;5.40;;;3.15;;
31676;SDS011;18385;51.572;6.578;2023-06-19T14:07:34;4.38;;;2.67;;
31676;SDS011;18385;51.572;6.578;2023-06-19T14:10:01;6.72;;;2.95;;
31676;SDS011;18385;51.572;6.578;2023-06-19T14:12:28;4.53;;;3.00;;
31676;SDS011;18385;51.572;6.578;2023-06-19T14:14:53;4.22;;;2.63;;
31676;SDS011;18385;51.572;6.578;2023-06-19T14:17:20;4.53;;;2.75;;
31676;SDS011;18385;51.572;6.578;2023-06-19T14:19:48;3.83;;;2.83;;
31676;SDS011;18385;51.572;6.578;2023-06-19T14:22:15;5.93;;;3.00;;
31676;SDS011;18385;51.572;6.578;2023-06-19T14:24:42;5.00;;;3.30;;
31676;SDS011;18385;51.572;6.578;2023-06-19T14:27:07;5.55;;;2.92;;
31676;SDS011;18385;51.572;6.578;2023-06-19T14:29:33;4.68;;;3.10;;
31676;SDS011;18385;51.572;6.578;2023-06-19T14:31:59;4.85;;;3.45;;
31676;SDS011;18385;51.572;6.578;2023-06-19T14:34:25;5.45;;;3.30;;
31676;SDS011;18385;51.572;6.578;2023-06-19T14:36:50;3.97;;;2.90;;
31676;SDS011;18385;51.572;6.578;2023-06-19T14:39:16;7.00;;;3.00;;
31676;SDS011;18385;51.572;6.578;2023-06-19T14:41:42;4.28;;;2.70;;
31676;SDS011;18385;51.572;6.578;2023-06-19T14:44:08;4.13;;;2.83;;
31676;SDS011;18385;51.572;6.578;2023-06-19T14:46:33;4.85;;;2.95;;
31676;SDS011;18385;51.572;6.578;2023-06-19T14:49:04;4.90;;;3.10;;
31676;SDS011;18385;51.572;6.578;2023-06-19T14:51:31;6.22;;;3.13;;
31676;SDS011;18385;51.572;6.578;2023-06-19T14:53:56;4.47;;;3.10;;
31676;SDS011;18385;51.572;6.578;2023-06-19T14:56:22;5.32;;;2.90;;
31676;SDS011;18385;51.572;6.578;2023-06-19T14:58:48;6.68;;;3.05;;
31676;SDS011;18385;51.572;6.578;2023-06-19T15:01:13;5.15;;;2.95;;